createdAt,value
2022-12-08T00:00:24.188Z,1002.93
2022-12-08T00:01:24.155Z,1002.91
2022-12-08T00:02:24.288Z,1002.91
2022-12-08T00:03:24.273Z,1002.91
2022-12-08T00:04:24.146Z,1002.92
2022-12-08T00:05:24.118Z,1002.91
2022-12-08T00:06:24.123Z,1002.90
2022-12-08T00:07:24.092Z,1002.89
2022-12-08T00:08:24.259Z,1002.88
2022-12-08T00:09:24.171Z,1002.86
2022-12-08T00:10:48.467Z,1002.86
2022-12-08T00:11:24.060Z,1002.85
2022-12-08T00:12:24.064Z,1002.85
2022-12-08T00:13:24.046Z,1002.83
2022-12-08T00:14:24.042Z,1002.82
2022-12-08T00:15:24.017Z,1002.80
2022-12-08T00:16:24.085Z,1002.79
2022-12-08T00:17:23.989Z,1002.78
2022-12-08T00:18:24.076Z,1002.76
2022-12-08T00:19:23.985Z,1002.75
2022-12-08T00:20:23.994Z,1002.73
2022-12-08T00:21:24.113Z,1002.72
2022-12-08T00:22:23.967Z,1002.74
2022-12-08T00:23:23.927Z,1002.69
2022-12-08T00:24:23.960Z,1002.67
2022-12-08T00:25:23.905Z,1002.66
2022-12-08T00:26:23.924Z,1002.64
2022-12-08T00:27:23.892Z,1002.64
2022-12-08T00:28:24.011Z,1002.61
2022-12-08T00:29:23.879Z,1002.58
2022-12-08T00:30:23.879Z,1002.57
2022-12-08T00:31:23.884Z,1002.57
2022-12-08T00:32:23.908Z,1002.56
2022-12-08T00:33:23.824Z,1002.55
2022-12-08T00:34:23.864Z,1002.54
2022-12-08T00:35:23.807Z,1002.53
2022-12-08T00:36:23.835Z,1002.53
2022-12-08T00:37:23.785Z,1002.50
2022-12-08T00:38:23.795Z,1002.49
2022-12-08T00:39:23.769Z,1002.48
2022-12-08T00:40:23.790Z,1002.47
2022-12-08T00:41:23.744Z,1002.45
2022-12-08T00:42:23.751Z,1002.44
2022-12-08T00:43:23.736Z,1002.42
2022-12-08T00:44:23.739Z,1002.42
2022-12-08T00:45:23.729Z,1002.42
2022-12-08T00:46:23.772Z,1002.41
2022-12-08T00:47:25.127Z,1002.40
2022-12-08T00:48:23.704Z,1002.39
2022-12-08T00:49:23.666Z,1002.38
2022-12-08T00:50:23.698Z,1002.35
2022-12-08T00:51:23.650Z,1002.36
2022-12-08T00:52:23.655Z,1002.33
2022-12-08T00:53:23.619Z,1002.32
2022-12-08T00:54:23.630Z,1002.31
2022-12-08T00:55:23.604Z,1002.31
2022-12-08T00:56:23.621Z,1002.30
2022-12-08T00:57:23.578Z,1002.32
2022-12-08T00:58:23.595Z,1002.32
2022-12-08T00:59:23.555Z,1002.33
2022-12-08T01:00:23.569Z,1002.33
2022-12-08T01:01:23.566Z,1002.33
2022-12-08T01:02:23.550Z,1002.33
2022-12-08T01:03:23.532Z,1002.32
2022-12-08T01:04:23.528Z,1002.32
2022-12-08T01:05:23.497Z,1002.31
2022-12-08T01:06:23.522Z,1002.33
2022-12-08T01:07:23.474Z,1002.34
2022-12-08T01:08:23.552Z,1002.35
2022-12-08T01:09:23.452Z,1002.38
2022-12-08T01:10:23.465Z,1002.35
2022-12-08T01:11:23.451Z,1002.32
2022-12-08T01:12:23.448Z,1002.36
2022-12-08T01:13:23.414Z,1002.30
2022-12-08T01:14:23.425Z,1002.31
2022-12-08T01:15:23.392Z,1002.32
2022-12-08T01:16:23.424Z,1002.37
2022-12-08T01:17:23.387Z,1002.32
2022-12-08T01:18:23.393Z,1002.32
2022-12-08T01:19:23.348Z,1002.30
2022-12-08T01:20:23.364Z,1002.32
2022-12-08T01:21:23.330Z,1002.27
2022-12-08T01:22:23.354Z,1002.27
2022-12-08T01:23:23.314Z,1002.27
2022-12-08T01:24:23.318Z,1002.27
2022-12-08T01:25:23.286Z,1002.27
2022-12-08T01:26:23.302Z,1002.28
2022-12-08T01:27:23.310Z,1002.32
2022-12-08T01:28:23.266Z,1002.31
2022-12-08T01:29:23.285Z,1002.33
2022-12-08T01:30:23.242Z,1002.31
2022-12-08T01:31:23.359Z,1002.34
2022-12-08T01:32:23.222Z,1002.36
2022-12-08T01:33:23.244Z,1002.33
2022-12-08T01:34:23.206Z,1002.34
2022-12-08T01:35:23.209Z,1002.36
2022-12-08T01:36:23.186Z,1002.36
2022-12-08T01:37:23.190Z,1002.36
2022-12-08T01:38:23.169Z,1002.40
2022-12-08T01:39:23.167Z,1002.38
2022-12-08T01:40:23.136Z,1002.39
2022-12-08T01:41:23.147Z,1002.39
2022-12-08T01:42:23.123Z,1002.40
2022-12-08T01:43:23.162Z,1002.38
2022-12-08T01:44:23.091Z,1002.39
2022-12-08T01:45:23.109Z,1002.38
2022-12-08T01:46:23.122Z,1002.41
2022-12-08T01:47:23.091Z,1002.39
2022-12-08T01:48:23.085Z,1002.36
2022-12-08T01:49:23.076Z,1002.36
2022-12-08T01:50:23.039Z,1002.38
2022-12-08T01:51:23.041Z,1002.35
2022-12-08T01:52:23.008Z,1002.35
2022-12-08T01:53:23.028Z,1002.33
2022-12-08T01:54:22.997Z,1002.31
2022-12-08T01:55:22.998Z,1002.31
2022-12-08T01:56:22.971Z,1002.29
2022-12-08T01:57:22.983Z,1002.30
2022-12-08T01:58:22.971Z,1002.29
2022-12-08T01:59:22.975Z,1002.30
2022-12-08T02:00:22.926Z,1002.29
2022-12-08T02:01:23.024Z,1002.31
2022-12-08T02:02:22.952Z,1002.28
2022-12-08T02:03:22.931Z,1002.28
2022-12-08T02:04:22.887Z,1002.28
2022-12-08T02:05:22.911Z,1002.24
2022-12-08T02:06:22.866Z,1002.20
2022-12-08T02:07:22.879Z,1002.20
2022-12-08T02:08:22.915Z,1002.20
2022-12-08T02:09:22.853Z,1002.16
2022-12-08T02:10:22.836Z,1002.15
2022-12-08T02:11:22.841Z,1002.18
2022-12-08T02:12:22.800Z,1002.16
2022-12-08T02:13:22.815Z,1002.16
2022-12-08T02:14:22.784Z,1002.15
2022-12-08T02:15:22.830Z,1002.14
2022-12-08T02:16:22.814Z,1002.10
2022-12-08T02:17:22.775Z,1002.09
2022-12-08T02:18:22.738Z,1002.07
2022-12-08T02:19:30.898Z,1002.06
2022-12-08T02:20:22.736Z,1002.06
2022-12-08T02:21:22.754Z,1002.07
2022-12-08T02:22:22.702Z,1002.06
2022-12-08T02:23:22.715Z,1002.08
2022-12-08T02:24:22.677Z,1002.03
2022-12-08T02:25:22.691Z,1002.02
2022-12-08T02:26:22.668Z,1002.02
2022-12-08T02:27:22.665Z,1002.04
2022-12-08T02:28:22.633Z,1001.97
2022-12-08T02:29:22.663Z,1001.98
2022-12-08T02:30:22.615Z,1001.96
2022-12-08T02:31:22.760Z,1001.94
2022-12-08T02:32:22.596Z,1001.95
2022-12-08T02:33:22.613Z,1001.93
2022-12-08T02:34:22.576Z,1001.90
2022-12-08T02:35:22.593Z,1001.88
2022-12-08T02:36:22.552Z,1001.87
2022-12-08T02:37:22.585Z,1001.89
2022-12-08T02:38:22.538Z,1001.87
2022-12-08T02:39:22.552Z,1001.85
2022-12-08T02:40:22.513Z,1001.86
2022-12-08T02:41:22.549Z,1001.86
2022-12-08T02:42:22.505Z,1001.86
2022-12-08T02:43:22.502Z,1001.80
2022-12-08T02:44:22.475Z,1001.79
2022-12-08T02:45:22.487Z,1001.77
2022-12-08T02:46:22.560Z,1001.75
2022-12-08T02:47:22.491Z,1001.73
2022-12-08T02:48:22.431Z,1001.73
2022-12-08T02:49:22.450Z,1001.73
2022-12-08T02:50:22.412Z,1001.70
2022-12-08T02:51:22.419Z,1001.74
2022-12-08T02:52:22.400Z,1001.66
2022-12-08T02:53:22.413Z,1001.66
2022-12-08T02:54:22.369Z,1001.65
2022-12-08T02:55:22.382Z,1001.63
2022-12-08T02:56:22.347Z,1001.61
2022-12-08T02:57:22.360Z,1001.61
2022-12-08T02:58:22.352Z,1001.62
2022-12-08T02:59:22.337Z,1001.61
2022-12-08T03:00:22.306Z,1001.59
2022-12-08T03:01:22.349Z,1001.57
2022-12-08T03:02:22.328Z,1001.57
2022-12-08T03:03:22.304Z,1001.53
2022-12-08T03:04:22.279Z,1001.49
2022-12-08T03:05:22.275Z,1001.51
2022-12-08T03:06:22.243Z,1001.47
2022-12-08T03:07:22.255Z,1001.46
2022-12-08T03:08:22.321Z,1001.46
2022-12-08T03:09:22.245Z,1001.43
2022-12-08T03:10:22.210Z,1001.42
2022-12-08T03:11:22.222Z,1001.41
2022-12-08T03:12:22.202Z,1001.40
2022-12-08T03:13:22.192Z,1001.40
2022-12-08T03:14:22.200Z,1001.40
2022-12-08T03:15:22.181Z,1001.40
2022-12-08T03:16:22.277Z,1001.41
2022-12-08T03:17:22.158Z,1001.38
2022-12-08T03:18:22.139Z,1001.39
2022-12-08T03:19:22.140Z,1001.39
2022-12-08T03:20:22.109Z,1001.38
2022-12-08T03:21:22.109Z,1001.34
2022-12-08T03:22:22.082Z,1001.36
2022-12-08T03:23:22.097Z,1001.36
2022-12-08T03:24:22.056Z,1001.34
2022-12-08T03:25:22.081Z,1001.31
2022-12-08T03:26:22.048Z,1001.31
2022-12-08T03:27:22.052Z,1001.30
2022-12-08T03:28:22.037Z,1001.30
2022-12-08T03:29:22.029Z,1001.28
2022-12-08T03:30:22.064Z,1001.27
2022-12-08T03:31:22.145Z,1001.25
2022-12-08T03:32:21.974Z,1001.22
2022-12-08T03:33:22.007Z,1001.20
2022-12-08T03:34:21.951Z,1001.16
2022-12-08T03:35:21.976Z,1001.14
2022-12-08T03:36:21.941Z,1001.11
2022-12-08T03:37:21.944Z,1001.11
2022-12-08T03:38:21.909Z,1001.08
2022-12-08T03:39:21.922Z,1001.06
2022-12-08T03:40:21.899Z,1001.07
2022-12-08T03:41:21.914Z,1001.06
2022-12-08T03:42:21.874Z,1001.08
2022-12-08T03:43:21.890Z,1001.05
2022-12-08T03:44:21.849Z,1001.04
2022-12-08T03:45:21.880Z,1001.03
2022-12-08T03:46:54.962Z,1001.03
2022-12-08T03:47:55.993Z,1001.00
2022-12-08T03:48:55.945Z,1001.00
2022-12-08T03:49:55.946Z,1001.00
2022-12-08T03:50:56.056Z,1001.00
2022-12-08T03:51:55.923Z,1001.00
2022-12-08T03:52:55.909Z,1000.99
2022-12-08T03:53:55.936Z,1000.95
2022-12-08T03:54:55.868Z,1000.98
2022-12-08T03:55:55.900Z,1000.92
2022-12-08T03:56:55.845Z,1000.92
2022-12-08T03:57:55.858Z,1000.91
2022-12-08T03:58:55.864Z,1000.93
2022-12-08T03:59:55.840Z,1000.90
2022-12-08T04:00:55.827Z,1000.90
2022-12-08T04:01:55.861Z,1000.88
2022-12-08T04:02:55.847Z,1000.89
2022-12-08T04:03:55.841Z,1000.86
2022-12-08T04:04:55.784Z,1000.83
2022-12-08T04:05:55.789Z,1000.80
2022-12-08T04:06:55.756Z,1000.82
2022-12-08T04:07:55.794Z,1000.79
2022-12-08T04:08:55.727Z,1000.81
2022-12-08T04:09:55.738Z,1000.79
2022-12-08T04:10:55.733Z,1000.79
2022-12-08T04:11:55.733Z,1000.78
2022-12-08T04:12:55.703Z,1000.76
2022-12-08T04:13:55.714Z,1000.78
2022-12-08T04:14:55.699Z,1000.71
2022-12-08T04:15:55.750Z,1000.72
2022-12-08T04:16:55.671Z,1000.71
2022-12-08T04:17:55.662Z,1000.69
2022-12-08T04:18:55.626Z,1000.67
2022-12-08T04:19:55.632Z,1000.68
2022-12-08T04:20:55.608Z,1000.64
2022-12-08T04:21:55.620Z,1000.64
2022-12-08T04:22:55.597Z,1000.61
2022-12-08T04:24:00.823Z,1000.65
2022-12-08T04:24:55.568Z,1000.61
2022-12-08T04:25:55.582Z,1000.64
2022-12-08T04:26:55.554Z,1000.61
2022-12-08T04:27:55.578Z,1000.61
2022-12-08T04:28:55.528Z,1000.62
2022-12-08T04:29:55.539Z,1000.61
2022-12-08T04:30:55.522Z,1000.59
2022-12-08T04:31:55.625Z,1000.58
2022-12-08T04:32:55.497Z,1000.55
2022-12-08T04:33:55.502Z,1000.55
2022-12-08T04:34:55.456Z,1000.54
2022-12-08T04:35:55.485Z,1000.53
2022-12-08T04:36:55.479Z,1000.52
2022-12-08T04:37:55.448Z,1000.52
2022-12-08T04:38:55.437Z,1000.51
2022-12-08T04:39:55.456Z,1000.50
2022-12-08T04:40:55.389Z,1000.49
2022-12-08T04:41:55.409Z,1000.49
2022-12-08T04:42:55.385Z,1000.49
2022-12-08T04:43:55.395Z,1000.48
2022-12-08T04:44:55.369Z,1000.47
2022-12-08T04:45:55.365Z,1000.47
2022-12-08T04:46:55.428Z,1000.47
2022-12-08T04:47:55.339Z,1000.47
2022-12-08T04:48:55.333Z,1000.46
2022-12-08T04:49:55.330Z,1000.45
2022-12-08T04:50:55.320Z,1000.43
2022-12-08T04:51:55.310Z,1000.46
2022-12-08T04:52:55.269Z,1000.46
2022-12-08T04:53:55.310Z,1000.45
2022-12-08T04:54:55.246Z,1000.48
2022-12-08T04:55:55.280Z,1000.47
2022-12-08T04:56:55.264Z,1000.44
2022-12-08T04:57:55.251Z,1000.44
2022-12-08T04:58:55.205Z,1000.45
2022-12-08T04:59:55.236Z,1000.43
2022-12-08T05:00:55.263Z,1000.41
2022-12-08T05:01:55.404Z,1000.41
2022-12-08T05:02:55.218Z,1000.39
2022-12-08T05:03:55.188Z,1000.39
2022-12-08T05:04:55.155Z,1000.40
2022-12-08T05:05:55.186Z,1000.39
2022-12-08T05:06:55.145Z,1000.41
2022-12-08T05:07:55.234Z,1000.38
2022-12-08T05:08:55.119Z,1000.35
2022-12-08T05:09:55.173Z,1000.37
2022-12-08T05:10:55.085Z,1000.35
2022-12-08T05:11:55.106Z,1000.36
2022-12-08T05:12:55.057Z,1000.38
2022-12-08T05:13:55.078Z,1000.38
2022-12-08T05:14:55.040Z,1000.37
2022-12-08T05:15:55.181Z,1000.37
2022-12-08T05:16:55.084Z,1000.34
2022-12-08T05:17:55.074Z,1000.35
2022-12-08T05:18:55.020Z,1000.32
2022-12-08T05:19:55.015Z,1000.33
2022-12-08T05:20:55.000Z,1000.31
2022-12-08T05:21:55.005Z,1000.30
2022-12-08T05:22:54.962Z,1000.26
2022-12-08T05:23:54.980Z,1000.25
2022-12-08T05:24:54.946Z,1000.27
2022-12-08T05:25:54.964Z,1000.24
2022-12-08T05:26:54.925Z,1000.27
2022-12-08T05:28:06.252Z,1000.24
2022-12-08T05:28:54.904Z,1000.25
2022-12-08T05:29:54.913Z,1000.24
2022-12-08T05:30:54.902Z,1000.23
2022-12-08T05:31:54.947Z,1000.21
2022-12-08T05:32:54.855Z,1000.23
2022-12-08T05:33:57.422Z,1000.21
2022-12-08T05:34:54.866Z,1000.20
2022-12-08T05:35:54.851Z,1000.21
2022-12-08T05:36:54.977Z,1000.18
2022-12-08T05:37:54.854Z,1000.17
2022-12-08T05:38:54.794Z,1000.17
2022-12-08T05:39:54.805Z,1000.19
2022-12-08T05:40:54.771Z,1000.17
2022-12-08T05:41:54.812Z,1000.17
2022-12-08T05:42:54.773Z,1000.15
2022-12-08T05:43:54.763Z,1000.15
2022-12-08T05:44:54.729Z,1000.14
2022-12-08T05:45:54.826Z,1000.13
2022-12-08T05:46:54.743Z,1000.15
2022-12-08T05:47:54.731Z,1000.14
2022-12-08T05:48:54.727Z,1000.12
2022-12-08T05:49:54.722Z,1000.11
2022-12-08T05:50:54.680Z,1000.10
2022-12-08T05:51:54.699Z,1000.09
2022-12-08T05:52:54.680Z,1000.08
2022-12-08T05:53:54.677Z,1000.08
2022-12-08T05:54:54.652Z,1000.06
2022-12-08T05:55:54.684Z,1000.05
2022-12-08T05:56:54.626Z,1000.07
2022-12-08T05:57:54.640Z,1000.02
2022-12-08T05:58:54.591Z,1000.03
2022-12-08T05:59:54.598Z,999.99
2022-12-08T06:00:54.566Z,1000.01
2022-12-08T06:01:54.626Z,999.98
2022-12-08T06:02:54.685Z,999.96
2022-12-08T06:03:54.564Z,999.97
2022-12-08T06:04:54.536Z,999.96
2022-12-08T06:05:54.554Z,999.93
2022-12-08T06:06:54.504Z,999.92
2022-12-08T06:07:54.589Z,999.91
2022-12-08T06:08:54.496Z,999.91
2022-12-08T06:09:54.499Z,999.92
2022-12-08T06:10:54.474Z,999.92
2022-12-08T06:11:54.517Z,999.91
2022-12-08T06:12:54.444Z,999.94
2022-12-08T06:13:54.473Z,999.95
2022-12-08T06:14:54.436Z,999.92
2022-12-08T06:15:54.455Z,999.91
2022-12-08T06:16:54.582Z,999.92
2022-12-08T06:17:54.424Z,999.96
2022-12-08T06:18:54.429Z,999.94
2022-12-08T06:19:54.392Z,999.94
2022-12-08T06:20:54.359Z,999.93
2022-12-08T06:21:54.368Z,999.92
2022-12-08T06:22:54.340Z,999.95
2022-12-08T06:23:54.375Z,999.93
2022-12-08T06:24:54.331Z,999.95
2022-12-08T06:25:54.331Z,999.94
2022-12-08T06:26:54.304Z,999.90
2022-12-08T06:27:54.310Z,999.92
2022-12-08T06:28:54.331Z,999.89
2022-12-08T06:29:54.306Z,999.88
2022-12-08T06:30:54.278Z,999.91
2022-12-08T06:31:54.343Z,999.91
2022-12-08T06:32:54.230Z,999.90
2022-12-08T06:33:54.251Z,999.88
2022-12-08T06:34:54.228Z,999.90
2022-12-08T06:35:54.237Z,999.88
2022-12-08T06:36:54.219Z,999.88
2022-12-08T06:37:54.208Z,999.93
2022-12-08T06:38:54.190Z,999.90
2022-12-08T06:39:54.215Z,999.91
2022-12-08T06:40:54.175Z,999.92
2022-12-08T06:41:54.171Z,999.92
2022-12-08T06:42:54.138Z,999.89
2022-12-08T06:43:54.143Z,999.89
2022-12-08T06:44:54.121Z,999.91
2022-12-08T06:45:54.195Z,999.91
2022-12-08T06:46:54.099Z,999.90
2022-12-08T06:47:54.108Z,999.91
2022-12-08T06:48:54.073Z,999.91
2022-12-08T06:49:54.087Z,999.92
2022-12-08T06:50:54.063Z,999.91
2022-12-08T06:51:54.062Z,999.91
2022-12-08T06:53:03.116Z,999.93
2022-12-08T06:53:54.054Z,999.89
2022-12-08T06:54:54.008Z,999.89
2022-12-08T06:56:01.313Z,999.90
2022-12-08T06:56:53.992Z,999.88
2022-12-08T06:57:54.279Z,999.87
2022-12-08T06:58:53.972Z,999.89
2022-12-08T06:59:53.979Z,999.88
2022-12-08T07:00:54.114Z,999.88
2022-12-08T07:01:54.040Z,999.90
2022-12-08T07:02:53.969Z,999.91
2022-12-08T07:03:53.933Z,999.92
2022-12-08T07:04:53.901Z,999.92
2022-12-08T07:05:54.782Z,999.92
2022-12-08T07:06:53.899Z,999.93
2022-12-08T07:07:53.959Z,999.94
2022-12-08T07:08:53.873Z,999.94
2022-12-08T07:09:53.882Z,999.95
2022-12-08T07:10:53.844Z,999.95
2022-12-08T07:11:53.864Z,999.97
2022-12-08T07:12:53.834Z,999.95
2022-12-08T07:13:53.835Z,999.91
2022-12-08T07:14:53.814Z,999.92
2022-12-08T07:15:53.816Z,999.92
2022-12-08T07:16:53.942Z,999.93
2022-12-08T07:17:59.531Z,999.95
2022-12-08T07:18:53.766Z,999.95
2022-12-08T07:19:53.774Z,999.98
2022-12-08T07:20:53.760Z,999.96
2022-12-08T07:21:53.765Z,999.97
2022-12-08T07:22:53.732Z,999.97
2022-12-08T07:23:57.678Z,999.98
2022-12-08T07:24:53.717Z,1000.00
2022-12-08T07:25:53.720Z,1000.03
2022-12-08T07:26:53.709Z,1000.03
2022-12-08T07:27:53.685Z,1000.05
2022-12-08T07:28:53.697Z,1000.10
2022-12-08T07:29:53.646Z,1000.07
2022-12-08T07:30:53.698Z,1000.07
2022-12-08T07:31:53.630Z,1000.10
2022-12-08T07:32:53.650Z,1000.07
2022-12-08T07:33:53.619Z,1000.07
2022-12-08T07:34:53.619Z,1000.04
2022-12-08T07:35:53.589Z,1000.04
2022-12-08T07:36:53.604Z,1000.04
2022-12-08T07:37:53.563Z,1000.01
2022-12-08T07:38:53.589Z,1000.01
2022-12-08T07:39:53.561Z,1000.00
2022-12-08T07:40:53.576Z,1000.03
2022-12-08T07:41:53.517Z,999.97
2022-12-08T07:42:53.534Z,999.97
2022-12-08T07:43:53.614Z,999.94
2022-12-08T07:44:53.538Z,999.96
2022-12-08T07:45:53.549Z,999.95
2022-12-08T07:46:53.487Z,999.96
2022-12-08T07:47:53.484Z,999.96
2022-12-08T07:48:53.487Z,999.95
2022-12-08T07:49:53.443Z,999.94
2022-12-08T07:50:53.463Z,999.99
2022-12-08T07:51:53.444Z,999.96
2022-12-08T07:52:53.460Z,1000.00
2022-12-08T07:53:54.860Z,999.97
2022-12-08T07:54:53.413Z,999.98
2022-12-08T07:55:53.405Z,1000.00
2022-12-08T07:56:53.388Z,999.95
2022-12-08T07:57:53.352Z,1000.02
2022-12-08T07:58:53.380Z,999.97
2022-12-08T07:59:53.368Z,999.95
2022-12-08T08:00:53.561Z,1000.00
2022-12-08T08:02:19.545Z,1000.02
2022-12-08T08:02:53.520Z,999.99
2022-12-08T08:03:53.318Z,999.99
2022-12-08T08:04:53.476Z,999.96
2022-12-08T08:05:53.271Z,999.97
2022-12-08T08:06:53.321Z,999.99
2022-12-08T08:07:53.316Z,999.98
2022-12-08T08:08:53.268Z,999.99
2022-12-08T08:09:53.285Z,999.99
2022-12-08T08:10:53.247Z,1000.02
2022-12-08T08:12:14.725Z,999.97
2022-12-08T08:12:53.230Z,1000.04
2022-12-08T08:13:53.189Z,999.99
2022-12-08T08:14:53.200Z,1000.00
2022-12-08T08:15:53.315Z,1000.00
2022-12-08T08:16:53.318Z,1000.02
2022-12-08T08:17:53.171Z,1000.03
2022-12-08T08:18:53.170Z,1000.03
2022-12-08T08:19:53.137Z,1000.02
2022-12-08T08:20:53.164Z,1000.02
2022-12-08T08:21:53.122Z,1000.01
2022-12-08T08:22:53.119Z,1000.02
2022-12-08T08:23:53.083Z,1000.04
2022-12-08T08:24:53.108Z,1000.04
2022-12-08T08:25:53.083Z,1000.05
2022-12-08T08:26:53.085Z,1000.05
2022-12-08T08:27:53.044Z,1000.07
2022-12-08T08:28:53.060Z,1000.10
2022-12-08T08:29:53.046Z,1000.10
2022-12-08T08:30:53.108Z,1000.10
2022-12-08T08:31:53.007Z,1000.12
2022-12-08T08:32:53.028Z,1000.10
2022-12-08T08:33:53.022Z,1000.09
2022-12-08T08:34:53.000Z,1000.11
2022-12-08T08:35:52.961Z,1000.10
2022-12-08T08:36:53.049Z,1000.12
2022-12-08T08:37:52.976Z,1000.12
2022-12-08T08:38:52.976Z,1000.13
2022-12-08T08:39:52.921Z,1000.13
2022-12-08T08:40:52.944Z,1000.13
2022-12-08T08:41:52.912Z,1000.13
2022-12-08T08:42:52.919Z,1000.16
2022-12-08T08:43:52.884Z,1000.11
2022-12-08T08:44:52.896Z,1000.11
2022-12-08T08:45:52.915Z,1000.10
2022-12-08T08:46:53.001Z,1000.13
2022-12-08T08:47:52.843Z,1000.14
2022-12-08T08:48:52.853Z,1000.17
2022-12-08T08:49:52.819Z,1000.17
2022-12-08T08:50:52.835Z,1000.18
2022-12-08T08:51:52.844Z,1000.20
2022-12-08T08:52:52.816Z,1000.20
2022-12-08T08:53:52.793Z,1000.23
2022-12-08T08:54:52.810Z,1000.20
2022-12-08T08:55:52.759Z,1000.21
2022-12-08T08:56:52.780Z,1000.24
2022-12-08T08:57:52.757Z,1000.22
2022-12-08T08:58:52.748Z,1000.24
2022-12-08T08:59:52.732Z,1000.22
2022-12-08T09:00:52.756Z,1000.23
2022-12-08T09:01:52.744Z,1000.23
2022-12-08T09:02:52.716Z,1000.22
2022-12-08T09:03:52.677Z,1000.23
2022-12-08T09:04:52.760Z,1000.21
2022-12-08T09:05:52.750Z,1000.22
2022-12-08T09:06:52.683Z,1000.24
2022-12-08T09:07:52.692Z,1000.23
2022-12-08T09:08:52.649Z,1000.23
2022-12-08T09:09:55.803Z,1000.22
2022-12-08T09:10:52.671Z,1000.23
2022-12-08T09:11:52.612Z,1000.22
2022-12-08T09:12:52.606Z,1000.22
2022-12-08T09:13:52.576Z,1000.22
2022-12-08T09:14:52.584Z,1000.20
2022-12-08T09:15:52.675Z,1000.22
2022-12-08T09:16:52.579Z,1000.22
2022-12-08T09:17:52.530Z,1000.23
2022-12-08T09:18:52.543Z,1000.23
2022-12-08T09:19:52.505Z,1000.23
2022-12-08T09:20:52.516Z,1000.25
2022-12-08T09:21:52.498Z,1000.24
2022-12-08T09:22:52.513Z,1000.22
2022-12-08T09:23:52.469Z,1000.23
2022-12-08T09:24:52.478Z,1000.22
2022-12-08T09:25:52.453Z,1000.24
2022-12-08T09:26:52.457Z,1000.23
2022-12-08T09:27:52.441Z,1000.24
2022-12-08T09:28:52.447Z,1000.26
2022-12-08T09:29:52.416Z,1000.26
2022-12-08T09:30:52.485Z,1000.29
2022-12-08T09:31:52.535Z,1000.26
2022-12-08T09:32:52.422Z,1000.27
2022-12-08T09:33:52.409Z,1000.26
2022-12-08T09:34:52.530Z,1000.30
2022-12-08T09:35:52.346Z,1000.26
2022-12-08T09:36:52.364Z,1000.28
2022-12-08T09:37:52.324Z,1000.27
2022-12-08T09:38:52.369Z,1000.27
2022-12-08T09:39:52.301Z,1000.32
2022-12-08T09:40:52.317Z,1000.25
2022-12-08T09:41:52.278Z,1000.26
2022-12-08T09:42:52.307Z,1000.26
2022-12-08T09:43:52.267Z,1000.28
2022-12-08T09:44:52.318Z,1000.29
2022-12-08T09:45:52.243Z,1000.30
2022-12-08T09:46:52.364Z,1000.30
2022-12-08T09:47:52.231Z,1000.32
2022-12-08T09:48:52.242Z,1000.30
2022-12-08T09:49:52.223Z,1000.32
2022-12-08T09:50:52.240Z,1000.32
2022-12-08T09:51:52.179Z,1000.33
2022-12-08T09:52:52.191Z,1000.32
2022-12-08T09:53:52.178Z,1000.32
2022-12-08T09:54:52.184Z,1000.33
2022-12-08T09:55:52.149Z,1000.32
2022-12-08T09:56:52.162Z,1000.31
2022-12-08T09:57:56.293Z,1000.31
2022-12-08T09:58:52.139Z,1000.29
2022-12-08T09:59:52.115Z,1000.28
2022-12-08T10:00:52.133Z,1000.26
2022-12-08T10:01:52.184Z,1000.29
2022-12-08T10:02:52.139Z,1000.29
2022-12-08T10:03:52.073Z,1000.26
2022-12-08T10:04:52.137Z,1000.25
2022-12-08T10:05:52.041Z,1000.26
2022-12-08T10:06:52.047Z,1000.26
2022-12-08T10:07:52.121Z,1000.29
2022-12-08T10:08:52.041Z,1000.27
2022-12-08T10:09:52.011Z,1000.28
2022-12-08T10:10:52.018Z,1000.32
2022-12-08T10:11:51.972Z,1000.31
2022-12-08T10:12:52.001Z,1000.31
2022-12-08T10:13:51.959Z,1000.30
2022-12-08T10:14:51.990Z,1000.31
2022-12-08T10:15:52.006Z,1000.30
2022-12-08T10:16:52.031Z,1000.33
2022-12-08T10:17:51.917Z,1000.30
2022-12-08T10:18:51.937Z,1000.29
2022-12-08T10:19:51.894Z,1000.27
2022-12-08T10:20:51.949Z,1000.25
2022-12-08T10:21:51.874Z,1000.22
2022-12-08T10:22:51.893Z,1000.21
2022-12-08T10:23:51.860Z,1000.21
2022-12-08T10:24:51.858Z,1000.18
2022-12-08T10:25:51.841Z,1000.19
2022-12-08T10:26:51.874Z,1000.17
2022-12-08T10:27:51.824Z,1000.15
2022-12-08T10:28:51.836Z,1000.14
2022-12-08T10:29:51.799Z,1000.13
2022-12-08T10:30:51.817Z,1000.17
2022-12-08T10:31:51.836Z,1000.14
2022-12-08T10:32:51.790Z,1000.14
2022-12-08T10:33:51.803Z,1000.13
2022-12-08T10:34:56.208Z,1000.14
2022-12-08T10:35:51.725Z,1000.11
2022-12-08T10:36:51.733Z,1000.09
2022-12-08T10:37:51.703Z,1000.10
2022-12-08T10:38:51.755Z,1000.10
2022-12-08T10:39:51.689Z,1000.09
2022-12-08T10:40:51.714Z,1000.09
2022-12-08T10:41:51.683Z,1000.09
2022-12-08T10:42:51.677Z,1000.10
2022-12-08T10:43:51.651Z,1000.09
2022-12-08T10:44:51.675Z,1000.08
2022-12-08T10:45:51.621Z,1000.09
2022-12-08T10:46:51.689Z,1000.08
2022-12-08T10:47:55.404Z,1000.08
2022-12-08T10:48:51.627Z,1000.05
2022-12-08T10:49:51.579Z,1000.06
2022-12-08T10:50:51.632Z,1000.08
2022-12-08T10:51:51.574Z,1000.07
2022-12-08T10:52:51.602Z,1000.07
2022-12-08T10:53:51.538Z,1000.07
2022-12-08T10:54:51.550Z,1000.06
2022-12-08T10:55:51.549Z,1000.04
2022-12-08T10:56:51.568Z,1000.04
2022-12-08T10:57:51.511Z,1000.03
2022-12-08T10:58:51.506Z,1000.01
2022-12-08T10:59:51.482Z,1000.00
2022-12-08T11:00:51.565Z,1000.00
2022-12-08T11:01:51.643Z,999.99
2022-12-08T11:02:51.591Z,999.98
2022-12-08T11:03:51.459Z,999.97
2022-12-08T11:04:51.448Z,999.97
2022-12-08T11:05:51.432Z,999.97
2022-12-08T11:06:51.441Z,999.96
2022-12-08T11:07:51.453Z,999.97
2022-12-08T11:08:51.491Z,999.95
2022-12-08T11:09:51.377Z,999.95
2022-12-08T11:10:51.400Z,999.96
2022-12-08T11:11:51.383Z,999.97
2022-12-08T11:12:51.369Z,999.97
2022-12-08T11:13:51.357Z,999.99
2022-12-08T11:14:51.361Z,999.98
2022-12-08T11:15:51.338Z,999.97
2022-12-08T11:16:51.459Z,999.98
2022-12-08T11:17:57.451Z,999.98
2022-12-08T11:18:51.336Z,999.96
2022-12-08T11:19:51.278Z,999.97
2022-12-08T11:20:51.309Z,999.96
2022-12-08T11:21:51.296Z,999.97
2022-12-08T11:22:52.023Z,999.98
2022-12-08T11:23:51.231Z,999.97
2022-12-08T11:24:51.263Z,999.94
2022-12-08T11:25:51.219Z,999.92
2022-12-08T11:26:51.249Z,999.90
2022-12-08T11:27:51.194Z,999.90
2022-12-08T11:28:51.236Z,999.90
2022-12-08T11:29:51.181Z,999.89
2022-12-08T11:30:51.189Z,999.88
2022-12-08T11:31:51.211Z,999.89
2022-12-08T11:32:51.175Z,999.88
2022-12-08T11:33:51.136Z,999.88
2022-12-08T11:34:51.169Z,999.87
2022-12-08T11:35:51.106Z,999.88
2022-12-08T11:36:51.123Z,999.89
2022-12-08T11:37:51.090Z,999.89
2022-12-08T11:38:51.135Z,999.86
2022-12-08T11:39:51.061Z,999.87
2022-12-08T11:40:51.101Z,999.85
2022-12-08T11:41:51.039Z,999.85
2022-12-08T11:42:51.918Z,999.86
2022-12-08T11:43:51.057Z,999.84
2022-12-08T11:44:51.028Z,999.83
2022-12-08T11:45:51.087Z,999.84
2022-12-08T11:46:50.996Z,999.85
2022-12-08T11:47:55.607Z,999.86
2022-12-08T11:48:50.979Z,999.86
2022-12-08T11:49:50.987Z,999.85
2022-12-08T11:50:51.002Z,999.86
2022-12-08T11:51:50.987Z,999.86
2022-12-08T11:52:50.943Z,999.86
2022-12-08T11:53:50.957Z,999.86
2022-12-08T11:54:50.935Z,999.86
2022-12-08T11:55:50.919Z,999.84
2022-12-08T11:56:50.953Z,999.84
2022-12-08T11:57:50.985Z,999.83
2022-12-08T11:58:51.008Z,999.81
2022-12-08T11:59:50.904Z,999.81
2022-12-08T12:00:50.863Z,999.81
2022-12-08T12:01:50.907Z,999.80
2022-12-08T12:02:50.880Z,999.81
2022-12-08T12:03:50.840Z,999.81
2022-12-08T12:04:50.818Z,999.81
2022-12-08T12:06:18.295Z,999.80
2022-12-08T12:06:55.050Z,999.79
2022-12-08T12:07:50.886Z,999.79
2022-12-08T12:08:50.775Z,999.79
2022-12-08T12:09:50.771Z,999.78
2022-12-08T12:10:50.745Z,999.78
2022-12-08T12:11:50.771Z,999.78